Islip, New York
Current Conditions -  °F | °C
As of 11:56 AM on Sunday 23 Nov 2014 (Local Time) from KISP Reporting Station
Broken Clouds Broken Clouds  
Wind Chill: 52°   Ceiling: 25000
Heat Index: 52°   Visibility: 10mi
Dew Point: 27°   Wind: 8mph
Humidity: 38%   Direction: 200°SSW
Pressure: 30.15"   Gusts: NA
Location:  40.73°N, 73.21°W
Report Text: KISP 231656Z 20007KT 10SM FEW090 SCT110 BKN250 11/M03 A3015 RMK AO2 SLP209 T01111028
Loading
Personal Weather Stations






























Interactive Weather Map New forecast layout! Learn more

10-Day Weather Forecast

Advertisements
Track Severe Weather on mobile